Time;durP1;ratioP1;P1;durP2;ratioP2;P2;SDS_P1;SDS_P2;PMS_P1;PMS_P2;Temp;Humidity;BMP_temperature;BMP_pressure;BME280_temperature;BME280_humidity;BME280_pressure;Samples;Min_cycle;Max_cycle;Signal;HPM_P1;HPM_P2
2023/01/20 00:01:18;;;;;;;0.80;0.80;;;;;;;11.84;86.30;96101.22;5084800;28;20052;-59
2023/01/20 00:03:46;;;;;;;6.53;1.23;;;;;;;11.91;85.41;96092.88;5072926;28;20575;-58
2023/01/20 00:06:13;;;;;;;1.00;1.00;;;;;;;11.95;84.79;96101.97;5044392;28;20502;-59
2023/01/20 00:08:40;;;;;;;1.35;1.35;;;;;;;12.00;84.25;96096.00;5044838;28;20045;-58
2023/01/20 00:11:09;;;;;;;1.17;1.17;;;;;;;11.71;84.06;96053.69;5043997;28;20145;-58
2023/01/20 00:13:36;;;;;;;0.90;0.90;;;;;;;12.11;83.67;96111.44;5044791;28;20091;-59
2023/01/20 00:16:08;;;;;;;2.10;1.30;;;;;;;12.13;82.92;96105.50;5061136;28;20048;-58
2023/01/20 00:18:35;;;;;;;1.00;1.00;;;;;;;12.15;82.42;96103.09;5064611;28;20048;-58
2023/01/20 00:21:13;;;;;;;1.75;1.65;;;;;;;12.26;82.29;96126.06;5062481;28;20087;-59
2023/01/20 00:23:40;;;;;;;1.15;1.10;;;;;;;11.90;81.39;96044.16;5044755;28;20049;-61
2023/01/20 00:26:12;;;;;;;1.40;1.40;;;;;;;12.25;81.85;96105.03;5045201;28;20138;-59
2023/01/20 00:28:39;;;;;;;1.23;1.23;;;;;;;12.07;81.89;96118.22;5043187;28;20104;-58
2023/01/20 00:31:15;;;;;;;1.05;1.05;;;;;;;12.16;82.67;96127.69;5042524;28;20307;-59
2023/01/20 00:33:42;;;;;;;0.90;0.90;;;;;;;12.04;82.71;96119.00;5044575;28;20045;-60
2023/01/20 00:36:10;;;;;;;1.30;1.20;;;;;;;12.08;82.49;96125.31;5052100;28;20044;-58
2023/01/20 00:38:37;;;;;;;1.00;1.00;;;;;;;12.10;83.64;96125.72;5064026;28;20056;-60
2023/01/20 00:41:05;;;;;;;0.80;0.80;;;;;;;11.99;82.81;96113.88;5064360;28;20063;-58
2023/01/20 00:43:32;;;;;;;1.15;1.15;;;;;;;12.12;79.73;96120.56;5064025;28;20052;-58
2023/01/20 00:45:58;;;;;;;0.90;0.90;;;;;;;11.95;79.27;96083.34;5058065;28;20080;-58
2023/01/20 00:48:25;;;;;;;1.23;1.23;;;;;;;12.14;79.56;96110.63;5042831;28;21016;-58
2023/01/20 00:50:52;;;;;;;1.85;1.75;;;;;;;11.75;79.63;96031.50;5044298;28;20073;-58
2023/01/20 00:53:18;;;;;;;0.90;0.90;;;;;;;11.74;78.94;96032.72;5042671;28;20085;-57
2023/01/20 00:55:45;;;;;;;6.88;2.28;;;;;;;12.16;78.66;96088.03;5058630;28;20083;-59
2023/01/20 00:58:12;;;;;;;0.80;0.80;;;;;;;11.96;79.24;96050.84;5064225;28;20080;-58
2023/01/20 01:00:38;;;;;;;1.70;1.60;;;;;;;12.23;79.29;96093.56;5062057;28;20053;-58
2023/01/20 01:03:05;;;;;;;2.58;2.17;;;;;;;11.87;79.48;96064.38;5064359;28;20473;-58
2023/01/20 01:05:32;;;;;;;0.90;0.90;;;;;;;11.79;79.11;96079.47;5063803;28;20048;-59
2023/01/20 01:07:59;;;;;;;1.20;1.20;;;;;;;11.93;80.56;96101.59;5064258;28;20498;-59
2023/01/20 01:10:25;;;;;;;3.50;1.35;;;;;;;11.93;80.12;96112.72;5063932;28;20060;-59
2023/01/20 01:12:52;;;;;;;0.80;0.80;;;;;;;11.84;80.24;96081.78;5052906;28;20045;-57
2023/01/20 01:15:19;;;;;;;1.83;1.05;;;;;;;11.97;80.42;96119.03;5043804;28;20044;-59
2023/01/20 01:17:45;;;;;;;2.30;1.55;;;;;;;11.81;84.08;96115.91;5043500;28;20499;-58
2023/01/20 01:20:13;;;;;;;0.80;0.80;;;;;;;11.76;85.59;96108.00;5045018;28;20204;-59
2023/01/20 01:22:39;;;;;;;7.40;2.35;;;;;;;11.53;88.65;96094.56;5062001;28;20136;-58
2023/01/20 01:25:06;;;;;;;0.80;0.80;;;;;;;11.38;91.03;96092.22;5066582;28;20091;-60
2023/01/20 01:27:33;;;;;;;3.70;1.23;;;;;;;11.06;91.59;96052.63;5066664;28;20118;-58
2023/01/20 01:30:00;;;;;;;4.45;1.77;;;;;;;11.22;92.83;96102.91;5066790;28;20604;-58
2023/01/20 01:32:26;;;;;;;0.80;0.80;;;;;;;11.09;93.51;96085.09;5067655;28;20457;-57
2023/01/20 01:34:53;;;;;;;0.90;0.90;;;;;;;11.30;93.10;96096.94;5067032;28;20060;-59
2023/01/20 01:37:20;;;;;;;0.90;0.90;;;;;;;10.91;93.48;96057.41;5067689;28;20650;-57
2023/01/20 01:39:46;;;;;;;0.80;0.80;;;;;;;11.28;91.29;96088.25;5067404;28;20061;-58
2023/01/20 01:42:21;;;;;;;1.05;1.05;;;;;;;11.28;89.20;96076.38;5067495;28;20048;-59
2023/01/20 01:45:09;;;;;;;1.27;1.27;;;;;;;11.48;84.07;96063.66;5067169;28;20072;-58
2023/01/20 01:47:39;;;;;;;0.90;0.90;;;;;;;11.54;84.39;96068.41;5067632;28;20053;-58
2023/01/20 01:50:10;;;;;;;0.90;0.90;;;;;;;11.62;85.57;96058.06;5066953;28;20591;-59
2023/01/20 01:52:39;;;;;;;0.90;0.90;;;;;;;11.61;87.55;96062.03;5066263;28;20082;-58
2023/01/20 01:55:06;;;;;;;1.35;1.35;;;;;;;11.20;85.81;96009.06;5067307;28;20103;-58
2023/01/20 01:57:34;;;;;;;0.80;0.80;;;;;;;11.73;79.97;96058.84;5061481;28;20049;-58
2023/01/20 02:00:02;;;;;;;0.80;0.80;;;;;;;11.58;86.92;96051.75;5046913;28;20049;-58
2023/01/20 02:02:29;;;;;;;0.90;0.90;;;;;;;11.36;87.06;96039.94;5047263;28;20080;-58
2023/01/20 02:04:55;;;;;;;0.95;0.95;;;;;;;11.54;87.54;96050.97;5049644;28;20490;-59
2023/01/20 02:07:22;;;;;;;0.85;0.85;;;;;;;11.02;87.29;95963.97;5056805;28;20251;-58
2023/01/20 02:09:49;;;;;;;0.80;0.80;;;;;;;11.46;88.24;96049.41;5065894;28;20041;-58
2023/01/20 02:12:18;;;;;;;0.95;0.95;;;;;;;11.52;88.49;96037.50;5066975;28;20125;-58
2023/01/20 02:14:49;;;;;;;2.22;1.77;;;;;;;11.32;88.94;96038.34;5049884;28;20512;-57
2023/01/20 02:17:27;;;;;;;1.27;1.27;;;;;;;11.35;87.46;96045.88;5046724;28;20057;-58
2023/01/20 02:20:31;;;;;;;9.40;4.03;;;;;;;11.39;89.03;96046.66;5046868;28;20057;-59
2023/01/20 02:23:32;;;;;;;3.92;2.63;;;;;;;11.25;91.63;96018.97;5046947;28;20519;-58
2023/01/20 02:26:08;;;;;;;0.80;0.80;;;;;;;11.20;91.48;96034.03;5055964;28;20153;-57
2023/01/20 02:28:57;;;;;;;0.80;0.80;;;;;;;11.32;87.76;96035.56;5066754;28;20052;-58
2023/01/20 02:31:46;;;;;;;1.25;1.23;;;;;;;11.38;87.26;96025.66;5066515;28;20964;-58
2023/01/20 02:34:20;;;;;;;1.52;1.42;;;;;;;10.96;87.22;95948.94;5060752;28;20579;-58
2023/01/20 02:36:53;;;;;;;0.90;0.90;;;;;;;11.50;86.58;96028.00;5045072;28;20508;-58
2023/01/20 02:39:40;;;;;;;0.90;0.90;;;;;;;11.57;86.92;96028.00;5065051;28;20095;-58
2023/01/20 02:42:15;;;;;;;0.80;0.80;;;;;;;11.39;87.92;96022.50;5066258;28;20083;-58
2023/01/20 02:45:01;;;;;;;0.88;0.88;;;;;;;11.42;88.54;96037.53;5064948;28;20052;-58
2023/01/20 02:47:31;;;;;;;0.80;0.80;;;;;;;11.44;88.41;96030.41;5066485;28;20110;-57
2023/01/20 02:50:09;;;;;;;0.90;0.90;;;;;;;11.36;88.80;96033.59;5066542;28;21242;-57
2023/01/20 02:52:41;;;;;;;0.80;0.80;;;;;;;10.84;88.41;95962.44;5055307;28;20466;-57
2023/01/20 02:55:11;;;;;;;1.70;1.27;;;;;;;11.08;83.18;95997.63;5046328;28;20052;-58
2023/01/20 02:57:55;;;;;;;7.00;1.10;;;;;;;11.53;85.88;96058.50;5046386;28;20123;-58
2023/01/20 03:00:31;;;;;;;1.52;1.42;;;;;;;11.49;86.17;96070.78;5045708;28;20523;-57
2023/01/20 03:03:01;;;;;;;0.90;0.90;;;;;;;11.49;85.67;96070.78;5050441;28;20072;-58
2023/01/20 03:05:32;;;;;;;1.00;1.00;;;;;;;11.46;86.43;96068.81;5045308;28;20573;-57
2023/01/20 03:08:04;;;;;;;1.30;1.00;;;;;;;11.47;85.34;96076.75;5044720;28;20087;-58
2023/01/20 03:10:34;;;;;;;0.93;0.93;;;;;;;11.58;83.08;96079.47;5045702;28;20122;-57
2023/01/20 03:13:20;;;;;;;0.90;0.90;;;;;;;11.59;81.11;96075.50;5059506;28;20049;-57
2023/01/20 03:16:03;;;;;;;0.82;0.82;;;;;;;11.55;80.42;96058.09;5062891;28;20592;-57
2023/01/20 03:18:32;;;;;;;2.40;1.35;;;;;;;11.40;80.31;96039.91;5066037;28;20048;-58
2023/01/20 03:21:01;;;;;;;0.90;0.90;;;;;;;11.42;80.32;96059.72;5065446;28;20157;-57
2023/01/20 03:23:32;;;;;;;1.13;1.13;;;;;;;11.53;80.18;96060.47;5081610;28;20192;-58
2023/01/20 03:26:01;;;;;;;1.75;1.65;;;;;;;11.58;80.07;96062.84;5084009;28;20109;-57
2023/01/20 03:28:28;;;;;;;5.07;4.68;;;;;;;11.44;80.51;96051.78;5085754;28;20137;-57
2023/01/20 03:30:56;;;;;;;15.30;11.45;;;;;;;11.03;80.33;95998.03;5077689;28;20519;-58
2023/01/20 03:33:23;;;;;;;3.33;2.28;;;;;;;11.48;79.57;96047.81;5065445;28;20045;-59
2023/01/20 03:35:51;;;;;;;1.80;1.70;;;;;;;11.51;78.92;96046.22;5062805;28;20523;-58
2023/01/20 03:38:18;;;;;;;0.90;0.90;;;;;;;11.41;79.21;96060.91;5065175;28;20056;-57
2023/01/20 03:41:00;;;;;;;1.85;1.60;;;;;;;11.45;80.43;96061.69;5048619;28;20053;-58
2023/01/20 03:43:44;;;;;;;1.05;1.05;;;;;;;11.41;79.70;96052.59;5045188;28;20106;-56
2023/01/20 03:46:21;;;;;;;1.00;1.00;;;;;;;10.88;77.72;95946.56;5048564;28;20052;-58
2023/01/20 03:49:06;;;;;;;0.90;0.90;;;;;;;11.16;78.08;95977.00;5063929;28;20056;-58
2023/01/20 03:51:40;;;;;;;0.90;0.90;;;;;;;11.20;79.82;96005.50;5064760;28;20688;-58
2023/01/20 03:54:14;;;;;;;0.80;0.80;;;;;;;11.36;80.60;96039.13;5061313;28;20134;-58
2023/01/20 03:56:47;;;;;;;0.90;0.90;;;;;;;11.35;80.64;96027.25;5045076;28;20500;-57
2023/01/20 03:59:17;;;;;;;0.90;0.90;;;;;;;11.42;79.74;96020.88;5045269;28;20122;-57
2023/01/20 04:01:45;;;;;;;0.90;0.90;;;;;;;11.57;78.27;96039.09;5044851;28;20064;-58
2023/01/20 04:04:17;;;;;;;3.17;3.08;;;;;;;11.38;77.24;95987.63;5045006;28;20080;-57
2023/01/20 04:06:46;;;;;;;0.90;0.90;;;;;;;11.36;77.41;95978.13;5055449;28;20052;-58
2023/01/20 04:09:19;;;;;;;0.90;0.90;;;;;;;11.49;77.83;96004.25;5043278;28;20446;-57
2023/01/20 04:11:46;;;;;;;0.90;0.90;;;;;;;11.04;78.53;95933.09;5059926;28;20081;-57
2023/01/20 04:14:12;;;;;;;0.80;0.80;;;;;;;11.61;79.12;96045.41;5045476;28;20479;-57
2023/01/20 04:16:39;;;;;;;0.77;0.77;;;;;;;11.18;79.50;95988.47;5044572;28;20049;-57
2023/01/20 04:19:06;;;;;;;0.90;0.90;;;;;;;11.12;79.01;95967.91;5044589;28;20253;-59
2023/01/20 04:21:37;;;;;;;0.90;0.90;;;;;;;11.51;79.22;96038.69;5044230;28;20080;-57
2023/01/20 04:24:13;;;;;;;0.80;0.80;;;;;;;11.48;79.45;96042.28;5059671;28;20061;-59
2023/01/20 04:26:40;;;;;;;0.90;0.90;;;;;;;11.45;80.07;96042.28;5043810;28;20118;-60
2023/01/20 04:29:07;;;;;;;0.88;0.88;;;;;;;10.94;81.28;95983.78;5044703;28;20049;-57
2023/01/20 04:31:38;;;;;;;0.80;0.80;;;;;;;11.35;80.80;96040.34;5042073;28;20055;-57
2023/01/20 04:34:05;;;;;;;2.40;1.65;;;;;;;11.15;81.14;96033.63;5038644;28;20512;-57
2023/01/20 04:36:32;;;;;;;0.80;0.80;;;;;;;11.00;82.48;96005.13;5044082;28;20045;-58
2023/01/20 04:38:58;;;;;;;0.90;0.90;;;;;;;11.15;82.11;96019.75;5043064;28;20065;-59
2023/01/20 04:41:25;;;;;;;0.90;0.90;;;;;;;10.42;83.87;95963.25;5043171;28;20136;-59
2023/01/20 04:43:52;;;;;;;0.70;0.70;;;;;;;10.81;83.75;96002.00;5044516;28;20068;-58
2023/01/20 04:46:18;;;;;;;0.80;0.80;;;;;;;11.01;83.00;96022.56;5043932;28;20048;-59
2023/01/20 04:48:45;;;;;;;2.28;1.48;;;;;;;11.19;82.64;96056.59;5043946;28;20048;-57
2023/01/20 04:51:12;;;;;;;0.80;0.80;;;;;;;11.24;82.39;96037.56;5044136;28;20053;-59
2023/01/20 04:53:39;;;;;;;3.90;3.30;;;;;;;11.24;82.10;96025.72;5017688;28;20087;-58
2023/01/20 04:56:13;;;;;;;0.90;0.90;;;;;;;11.21;82.59;96026.47;5064386;28;20047;-58
2023/01/20 04:58:40;;;;;;;0.98;0.98;;;;;;;10.96;83.23;95998.81;5033198;28;20075;-58
2023/01/20 05:01:08;;;;;;;4.60;4.20;;;;;;;10.98;83.78;96002.00;5043562;28;20159;-57
2023/01/20 05:03:36;;;;;;;0.80;0.80;;;;;;;10.97;84.07;96022.56;5042778;28;20051;-57
2023/01/20 05:06:02;;;;;;;0.77;0.77;;;;;;;10.85;85.07;96008.31;5042489;28;20354;-58
2023/01/20 05:08:29;;;;;;;2.08;1.98;;;;;;;10.57;85.94;96004.38;5039755;28;20052;-57
2023/01/20 05:10:56;;;;;;;10.68;1.98;;;;;;;10.46;87.34;96003.56;5023822;28;20049;-57
2023/01/20 05:13:22;;;;;;;0.70;0.70;;;;;;;10.42;88.51;96013.88;5024407;28;20135;-57
2023/01/20 05:15:49;;;;;;;0.90;0.90;;;;;;;9.83;87.75;95914.94;5022689;28;20053;-59
2023/01/20 05:18:15;;;;;;;0.80;0.80;;;;;;;10.49;87.74;96013.88;5035769;28;20053;-58
2023/01/20 05:20:48;;;;;;;1.52;1.45;;;;;;;10.53;87.69;96020.19;5030741;28;20057;-58
2023/01/20 05:23:16;;;;;;;0.73;0.73;;;;;;;10.45;87.93;96018.63;5024283;28;20053;-58
2023/01/20 05:25:49;;;;;;;0.70;0.70;;;;;;;10.54;88.37;96024.53;5023254;28;20058;-58
2023/01/20 05:28:16;;;;;;;0.80;0.80;;;;;;;10.55;88.05;96012.31;5024441;28;20045;-57
2023/01/20 05:30:42;;;;;;;0.80;0.80;;;;;;;10.57;86.17;96001.59;5038803;28;20479;-58
2023/01/20 05:33:10;;;;;;;0.80;0.80;;;;;;;10.38;87.19;95977.09;5024138;28;20053;-57
2023/01/20 05:35:37;;;;;;;9.38;8.85;;;;;;;10.04;87.93;95936.31;5023758;28;20077;-59
2023/01/20 05:38:04;;;;;;;3.67;2.88;;;;;;;10.45;87.73;95985.41;5023922;28;20558;-58
2023/01/20 05:40:31;;;;;;;0.90;0.90;;;;;;;10.40;88.11;95999.63;5043329;28;20389;-57
2023/01/20 05:42:58;;;;;;;0.82;0.82;;;;;;;10.30;88.58;95989.34;5043625;28;20052;-57
2023/01/20 05:45:25;;;;;;;1.48;1.48;;;;;;;10.26;89.42;95999.63;5043779;28;20455;-58
2023/01/20 05:47:56;;;;;;;0.80;0.80;;;;;;;10.33;89.34;96005.16;5043633;28;20080;-59
2023/01/20 05:50:25;;;;;;;4.32;1.27;;;;;;;10.22;89.46;96015.44;5023966;28;20076;-57
2023/01/20 05:52:52;;;;;;;3.42;3.10;;;;;;;9.72;89.03;95922.41;5024607;28;20081;-57
2023/01/20 05:55:19;;;;;;;0.80;0.80;;;;;;;9.63;89.60;95921.22;5023640;28;20088;-56
2023/01/20 05:57:46;;;;;;;2.95;1.52;;;;;;;10.29;88.74;96015.44;5023171;28;20115;-57
2023/01/20 06:00:13;;;;;;;2.83;2.22;;;;;;;10.30;87.99;96017.03;5023275;28;20089;-57
2023/01/20 06:02:40;;;;;;;8.43;2.17;;;;;;;10.09;88.05;95994.84;5023186;28;20488;-56
2023/01/20 06:05:07;;;;;;;0.80;0.80;;;;;;;10.21;88.90;96024.91;5023549;28;20057;-58
2023/01/20 06:07:34;;;;;;;0.80;0.80;;;;;;;9.88;88.40;95961.56;5023395;28;20053;-57
2023/01/20 06:10:01;;;;;;;0.80;0.80;;;;;;;10.25;88.52;96009.13;5024050;28;20054;-57
2023/01/20 06:12:28;;;;;;;0.80;0.80;;;;;;;9.80;90.27;95970.25;5025447;28;20053;-57
2023/01/20 06:14:54;;;;;;;1.83;1.73;;;;;;;10.25;91.14;96011.06;5027053;28;20049;-59
2023/01/20 06:17:21;;;;;;;0.90;0.90;;;;;;;10.20;92.95;96011.47;5027090;28;20044;-56
2023/01/20 06:19:48;;;;;;;3.30;3.00;;;;;;;10.31;94.79;96002.00;5027170;28;20464;-58
2023/01/20 06:22:14;;;;;;;0.80;0.80;;;;;;;10.52;95.57;96012.28;5026512;28;20057;-57
2023/01/20 06:24:41;;;;;;;0.70;0.70;;;;;;;10.61;94.77;96005.19;5025546;28;20049;-58
2023/01/20 06:27:08;;;;;;;3.45;2.80;;;;;;;7.13;94.63;95451.34;5026466;28;20235;-57
2023/01/20 06:29:35;;;;;;;1.05;1.02;;;;;;;10.81;95.42;96002.81;5025219;28;20038;-57
2023/01/20 06:32:03;;;;;;;4.05;3.70;;;;;;;10.97;95.04;96010.69;5026257;28;20160;-56
2023/01/20 06:34:29;;;;;;;1.98;1.88;;;;;;;10.48;96.11;95917.34;5026689;28;20057;-57
2023/01/20 06:36:57;;;;;;;3.05;2.80;;;;;;;11.09;96.99;96008.31;5024605;28;20068;-57
2023/01/20 06:39:23;;;;;;;4.00;1.73;;;;;;;11.17;97.31;96004.34;5043321;28;20684;-56
2023/01/20 06:41:50;;;;;;;4.45;3.03;;;;;;;10.85;98.10;95941.84;5044456;28;20052;-57
2023/01/20 06:44:17;;;;;;;2.22;2.03;;;;;;;10.85;97.75;95931.56;5045142;28;20049;-58
2023/01/20 06:46:44;;;;;;;3.13;2.70;;;;;;;11.37;97.60;95997.16;5045602;28;20071;-57
2023/01/20 06:49:13;;;;;;;3.13;2.00;;;;;;;11.41;97.36;96024.88;5044023;28;20440;-58
2023/01/20 06:51:40;;;;;;;3.00;2.08;;;;;;;11.23;97.08;95976.97;5040533;28;20131;-56
2023/01/20 06:54:07;;;;;;;1.05;1.02;;;;;;;11.49;96.74;96009.78;5026911;28;20592;-55
2023/01/20 06:56:34;;;;;;;1.40;1.40;;;;;;;11.45;97.20;95998.69;5036452;28;20106;-57
2023/01/20 06:59:00;;;;;;;1.48;1.38;;;;;;;11.47;97.37;95989.97;5032724;28;20053;-59
2023/01/20 07:01:29;;;;;;;3.58;2.25;;;;;;;11.54;97.07;95989.97;5040071;28;20136;-57
2023/01/20 07:03:56;;;;;;;2.75;2.00;;;;;;;10.99;97.73;95925.97;5043934;28;20067;-58
2023/01/20 07:06:28;;;;;;;0.85;0.85;;;;;;;11.62;96.88;95997.03;5028975;28;20069;-58
2023/01/20 07:08:56;;;;;;;0.90;0.90;;;;;;;11.63;95.77;95990.34;5025741;28;20049;-57
2023/01/20 07:11:24;;;;;;;4.43;1.55;;;;;;;11.80;94.96;96003.34;5043405;28;20057;-57
2023/01/20 07:13:51;;;;;;;1.70;1.60;;;;;;;11.14;94.15;95876.84;5037619;28;20104;-57
2023/01/20 07:16:17;;;;;;;4.93;3.63;;;;;;;12.00;91.84;95980.25;5040300;28;20495;-58
2023/01/20 07:18:49;;;;;;;2.83;2.15;;;;;;;12.22;88.20;95992.00;5033764;28;20080;-57
2023/01/20 07:21:16;;;;;;;1.90;1.38;;;;;;;12.25;87.38;95968.22;5041734;28;20139;-58
2023/01/20 07:23:43;;;;;;;1.00;1.00;;;;;;;12.43;87.02;95974.41;5039737;28;20048;-56
2023/01/20 07:26:13;;;;;;;3.70;1.85;;;;;;;12.07;86.20;95896.97;5035145;28;20137;-58
2023/01/20 07:28:40;;;;;;;2.40;1.55;;;;;;;12.32;85.19;95899.53;5025529;28;20522;-58
2023/01/20 07:31:15;;;;;;;1.45;1.45;;;;;;;12.60;84.80;95959.63;5030887;28;20053;-61
2023/01/20 07:33:42;;;;;;;3.80;1.42;;;;;;;12.71;85.11;95969.41;5024871;28;20140;-58
2023/01/20 07:36:10;;;;;;;4.72;1.98;;;;;;;12.81;85.33;95932.41;5039841;28;20083;-59
2023/01/20 07:38:52;;;;;;;4.95;3.10;;;;;;;12.60;84.65;95902.03;5032659;28;20081;-56
2023/01/20 07:41:20;;;;;;;1.02;1.02;;;;;;;13.02;84.37;95962.81;5044637;28;20057;-57
2023/01/20 07:43:50;;;;;;;3.38;1.90;;;;;;;13.06;84.47;95946.88;5037982;28;20093;-56
2023/01/20 07:46:17;;;;;;;1.85;1.75;;;;;;;13.04;83.85;95921.47;5036785;28;20041;-57
2023/01/20 07:48:44;;;;;;;0.90;0.90;;;;;;;13.18;83.62;95948.34;5026552;28;20099;-55
2023/01/20 07:51:12;;;;;;;1.08;1.08;;;;;;;12.60;83.22;95851.28;5037424;28;20123;-56
2023/01/20 07:53:45;;;;;;;3.05;1.75;;;;;;;13.19;83.49;95950.72;5044688;28;20138;-58
2023/01/20 07:56:21;;;;;;;7.57;4.03;;;;;;;13.12;83.54;95956.34;5057129;28;20114;-57
2023/01/20 07:58:49;;;;;;;1.10;1.10;;;;;;;12.75;83.47;95925.72;5035335;28;20076;-57
2023/01/20 08:01:26;;;;;;;5.75;3.33;;;;;;;12.93;83.21;95976.38;5026205;28;20140;-54
2023/01/20 08:03:53;;;;;;;4.28;2.92;;;;;;;12.78;83.96;95963.81;5035098;28;20503;-59
2023/01/20 08:06:22;;;;;;;2.80;2.42;;;;;;;12.53;84.08;95913.25;5031193;28;20509;-57
2023/01/20 08:08:48;;;;;;;6.68;1.60;;;;;;;12.89;83.96;95949.81;5042526;28;20049;-61
2023/01/20 08:11:16;;;;;;;8.55;2.13;;;;;;;12.22;83.67;95830.22;5043177;28;20053;-57
2023/01/20 08:13:44;;;;;;;3.42;2.25;;;;;;;12.90;83.10;95941.06;5044320;28;20075;-57
2023/01/20 08:16:14;;;;;;;1.15;1.10;;;;;;;12.98;83.19;95950.09;5044076;28;20060;-57
2023/01/20 08:18:42;;;;;;;2.17;1.98;;;;;;;12.34;83.44;95851.91;5043508;28;20171;-57
2023/01/20 08:21:17;;;;;;;1.83;1.73;;;;;;;12.80;83.58;95928.06;5043265;28;20578;-58
2023/01/20 08:23:44;;;;;;;2.92;1.40;;;;;;;12.82;83.56;95920.09;5041605;28;20857;-58
2023/01/20 08:26:11;;;;;;;2.60;2.20;;;;;;;12.58;83.68;95885.03;5051421;28;20139;-58
2023/01/20 08:28:37;;;;;;;1.20;1.20;;;;;;;12.76;84.09;95909.84;5039580;28;20048;-59
2023/01/20 08:31:13;;;;;;;1.27;1.27;;;;;;;12.66;84.51;95900.41;5040801;28;20107;-58
2023/01/20 08:33:42;;;;;;;7.28;1.52;;;;;;;12.69;84.33;95885.72;5041472;28;20496;-56
2023/01/20 08:36:10;;;;;;;10.15;2.45;;;;;;;12.72;83.44;95871.00;5038420;28;20052;-55
2023/01/20 08:38:37;;;;;;;2.58;1.60;;;;;;;12.69;83.81;95868.25;5040029;28;20416;-57
2023/01/20 08:41:09;;;;;;;1.95;1.33;;;;;;;12.66;84.38;95861.50;5041883;28;20118;-55
2023/01/20 08:43:36;;;;;;;3.55;2.40;;;;;;;12.76;85.24;95882.84;5038642;28;20049;-56
2023/01/20 08:46:09;;;;;;;3.67;3.35;;;;;;;12.64;88.09;95885.34;5038326;28;20052;-55
2023/01/20 08:48:38;;;;;;;7.25;3.08;;;;;;;12.24;92.61;95873.00;5023682;28;20319;-60
2023/01/20 08:51:08;;;;;;;2.63;1.75;;;;;;;11.76;95.90;95848.00;5042137;28;20057;-58
2023/01/20 08:53:35;;;;;;;2.15;1.95;;;;;;;11.86;100.00;95887.97;5039604;28;20504;-60
2023/01/20 08:56:02;;;;;;;1.50;1.42;;;;;;;11.72;100.00;95890.84;5038185;28;20483;-58
2023/01/20 08:58:29;;;;;;;2.38;1.33;;;;;;;11.57;100.00;95889.31;5031169;28;20049;-57
2023/01/20 09:00:56;;;;;;;3.03;1.63;;;;;;;11.39;100.00;95883.06;5036517;28;20484;-60
2023/01/20 09:03:23;;;;;;;2.63;1.85;;;;;;;11.16;100.00;95874.47;5039202;28;20060;-56
2023/01/20 09:05:51;;;;;;;1.42;1.33;;;;;;;10.74;100.00;95853.25;5032886;28;20057;-62
2023/01/20 09:08:18;;;;;;;1.80;1.70;;;;;;;10.98;100.00;95923.59;5029849;28;20041;-60
2023/01/20 09:10:45;;;;;;;4.07;2.28;;;;;;;10.70;100.00;95944.63;5030520;28;20458;-58
2023/01/20 09:13:12;;;;;;;1.05;1.05;;;;;;;9.88;100.00;95817.75;5039839;28;20225;-59
2023/01/20 09:15:38;;;;;;;0.93;0.93;;;;;;;10.58;100.00;95935.94;5035793;28;20056;-58
2023/01/20 09:18:05;;;;;;;2.25;1.80;;;;;;;10.43;100.00;95967.63;5043665;28;20091;-61
2023/01/20 09:20:32;;;;;;;1.80;1.20;;;;;;;9.56;100.00;95948.84;5043161;28;20136;-57
2023/01/20 09:23:02;;;;;;;4.88;1.42;;;;;;;9.27;100.00;95972.81;5039746;28;20060;-56
2023/01/20 09:25:28;;;;;;;6.28;1.75;;;;;;;9.08;100.00;95967.59;5042920;28;20053;-58
2023/01/20 09:27:59;;;;;;;1.50;1.17;;;;;;;8.78;100.00;95942.19;5038119;28;20052;-59
2023/01/20 09:30:25;;;;;;;1.05;1.05;;;;;;;8.71;100.00;95947.69;5045789;28;20125;-57
2023/01/20 09:32:55;;;;;;;2.80;1.30;;;;;;;8.72;100.00;95957.53;5024379;28;20049;-58
2023/01/20 09:35:21;;;;;;;1.00;1.00;;;;;;;8.34;100.00;95894.59;5033453;28;20111;-56
2023/01/20 09:44:17;;;;;;;0.80;0.80;;;;;;;8.43;100.00;95958.50;5027139;28;20126;-56
2023/01/20 09:47:18;;;;;;;0.80;0.80;;;;;;;8.32;100.00;95965.91;5037257;28;20057;-57
2023/01/20 09:55:32;;;;;;;0.70;0.70;;;;;;;8.30;100.00;95935.16;5036282;28;20539;-60
2023/01/20 09:58:19;;;;;;;0.70;0.70;;;;;;;8.50;100.00;95928.19;5045929;28;20072;-57
2023/01/20 10:00:52;;;;;;;0.60;0.60;;;;;;;8.13;100.00;95872.31;5044244;28;20088;-56
2023/01/20 10:03:49;;;;;;;0.60;0.60;;;;;;;8.58;100.00;95916.03;5044351;28;20052;-56
2023/01/20 10:06:23;;;;;;;0.63;0.63;;;;;;;8.67;100.00;95897.16;5037448;28;20107;-56
2023/01/20 10:08:55;;;;;;;0.68;0.68;;;;;;;8.89;100.00;95882.28;5039099;28;20060;-58
2023/01/20 10:11:45;;;;;;;0.65;0.65;;;;;;;9.08;100.00;95862.63;5045229;28;20072;-55
2023/01/20 10:14:34;;;;;;;0.63;0.63;;;;;;;8.88;100.00;95825.50;5044496;28;20499;-55
2023/01/20 10:17:11;;;;;;;0.80;0.80;;;;;;;9.48;100.00;95831.97;5040586;28;20088;-57
2023/01/20 10:19:57;;;;;;;1.38;1.38;;;;;;;9.74;100.00;95806.69;5033721;28;20479;-55
2023/01/20 10:22:27;;;;;;;2.00;1.90;;;;;;;9.82;100.00;95786.16;5041391;28;20152;-57
2023/01/20 10:25:08;;;;;;;1.05;1.05;;;;;;;10.04;100.00;95787.72;5046300;28;20049;-58
2023/01/20 10:27:40;;;;;;;0.82;0.82;;;;;;;10.24;100.00;95791.66;5037189;28;20056;-59
2023/01/20 10:30:11;;;;;;;0.77;0.77;;;;;;;10.46;100.00;95787.66;5039911;28;20641;-56
2023/01/20 10:33:17;;;;;;;2.40;2.30;;;;;;;10.80;100.00;95778.81;5038154;28;20089;-56
2023/01/20 10:35:47;;;;;;;0.90;0.90;;;;;;;10.94;100.00;95782.31;5047412;28;20127;-59
2023/01/20 10:38:38;;;;;;;0.80;0.80;;;;;;;11.06;100.00;95775.53;5042611;28;20500;-57
2023/01/20 10:41:19;;;;;;;0.80;0.80;;;;;;;10.95;100.00;95769.28;5045607;28;20096;-54
2023/01/20 10:43:47;;;;;;;1.17;1.15;;;;;;;11.06;100.00;95778.31;5040501;28;20042;-57
2023/01/20 10:46:48;;;;;;;0.80;0.80;;;;;;;11.16;100.00;95791.34;5043197;28;20056;-60
2023/01/20 10:49:33;;;;;;;4.72;1.90;;;;;;;10.38;100.00;95799.94;5037337;28;20719;-61
2023/01/20 10:52:54;;;;;;;0.98;0.98;;;;;;;10.15;100.00;95796.03;5040795;28;20127;-56
2023/01/20 10:55:43;;;;;;;1.00;1.00;;;;;;;10.07;100.00;95803.56;5036995;28;20084;-57
2023/01/20 10:58:26;;;;;;;1.23;1.15;;;;;;;10.15;100.00;95805.13;5025586;28;20473;-56
2023/01/20 11:00:53;;;;;;;0.80;0.80;;;;;;;10.65;100.00;95795.50;5041451;28;20496;-56
2023/01/20 11:03:22;;;;;;;0.80;0.80;;;;;;;10.27;100.00;95713.41;5025558;28;20401;-59
2023/01/20 11:05:50;;;;;;;1.05;1.05;;;;;;;11.08;100.00;95807.19;5038006;28;20420;-57
2023/01/20 11:08:26;;;;;;;0.82;0.82;;;;;;;11.33;100.00;95829.25;5040257;28;20056;-57
2023/01/20 11:10:59;;;;;;;0.80;0.80;;;;;;;11.25;100.00;95783.34;5042794;28;20516;-56
2023/01/20 11:13:26;;;;;;;0.80;0.80;;;;;;;11.39;98.15;95781.28;5034256;28;20112;-55
2023/01/20 11:15:57;;;;;;;0.80;0.80;;;;;;;11.43;96.53;95795.13;5044820;28;20048;-56
2023/01/20 11:18:27;;;;;;;0.85;0.85;;;;;;;11.40;98.63;95801.47;5036025;28;20416;-58
2023/01/20 11:21:07;;;;;;;0.80;0.80;;;;;;;10.99;96.80;95765.28;5042148;28;20529;-56
2023/01/20 11:23:34;;;;;;;0.80;0.80;;;;;;;11.06;98.80;95806.81;5026489;28;20487;-57
2023/01/20 11:26:14;;;;;;;0.80;0.80;;;;;;;11.33;99.22;95796.78;5028203;28;20123;-58
2023/01/20 11:28:46;;;;;;;0.80;0.80;;;;;;;11.45;100.00;95795.50;5029776;28;20041;-55
2023/01/20 11:31:14;;;;;;;2.10;2.00;;;;;;;11.53;100.00;95783.16;5029724;28;20731;-56
2023/01/20 11:33:55;;;;;;;0.95;0.95;;;;;;;11.49;98.33;95787.97;5039148;28;20052;-57
2023/01/20 11:36:25;;;;;;;0.80;0.80;;;;;;;11.10;98.83;95746.63;5036752;28;20061;-57
2023/01/20 11:38:54;;;;;;;2.20;1.48;;;;;;;10.91;98.42;95690.94;5032937;28;20107;-56
2023/01/20 11:41:24;;;;;;;0.80;0.80;;;;;;;10.15;99.50;95702.75;5037483;28;20510;-57
2023/01/20 11:43:55;;;;;;;1.58;1.55;;;;;;;10.69;98.73;95751.97;5039483;28;20057;-55
2023/01/20 11:46:30;;;;;;;4.43;1.17;;;;;;;10.70;98.05;95745.25;5042706;28;20103;-56
2023/01/20 11:49:15;;;;;;;1.95;1.27;;;;;;;10.22;97.45;95727.63;5039247;28;20049;-55
2023/01/20 11:51:53;;;;;;;1.10;1.00;;;;;;;9.92;99.15;95691.34;5025221;28;20539;-60
2023/01/20 11:54:28;;;;;;;0.70;0.70;;;;;;;10.27;100.00;95752.16;5036497;28;20053;-57
2023/01/20 11:57:03;;;;;;;0.70;0.70;;;;;;;10.13;100.00;95710.66;5034060;28;20107;-55
2023/01/20 11:59:33;;;;;;;0.98;0.98;;;;;;;9.90;100.00;95726.09;5035078;28;20500;-56
2023/01/20 12:02:03;;;;;;;0.88;0.88;;;;;;;9.91;100.00;95734.00;5038296;28;20061;-56